Flight Track Log - Related Links

Times and Time Zones

All times are in EDT time to prevent confusion due to time zone crossing. See the N210KD flight status page for this flight to view local times or setup timezone preferences in your user account.

Time Position Orientation Groundspeed Altitude Reporting Facility
EDT Latitude Longitude Course Direction KTS MPH feet Rate Location/Type
Sat 01:46:00 PM 36.3065 -80.1774 317° Northwest  Level Estimated
Sat 01:47:00 PM 36.3322 -80.2071 317° Northwest  Level Estimated
Sat 01:48:00 PM 36.3578 -80.2367 317° Northwest  Level Estimated
Sat 01:49:00 PM 36.3834 -80.2664 317° Northwest  Level Estimated
Sat 01:50:00 PM 36.4090 -80.2960 317° Northwest  Level Estimated
Sat 01:51:00 PM 36.4346 -80.3257 317° Northwest  Level Estimated
Sat 01:52:00 PM 36.4601 -80.3555 317° Northwest  Level Estimated
Sat 01:53:00 PM 36.4857 -80.3852 317° Northwest  Level Estimated
Sat 01:54:00 PM 36.5113 -80.4150 317° Northwest  Level Estimated
Sat 01:55:00 PM 36.5368 -80.4447 317° Northwest  Level Estimated
Sat 01:56:00 PM 36.5624 -80.4745 317° Northwest  Level Estimated
Sat 01:57:00 PM 36.5879 -80.5044 317° Northwest  Level Estimated
Sat 01:59:50 PM 36.6919 -80.6394 317° Northwest 152 175 9,400  Level Indianapolis Center
Sat 02:00:20 PM 36.7083 -80.6597 315° West 140 161 9,700 533 Climbing Atlanta Center
Sat 02:01:20 PM 36.7361 -80.6869 322° Northwest 133 153 10,200 400 Climbing Atlanta Center
Sat 02:02:20 PM 36.7600 -80.7169 315° West 138 159 10,500 150 Climbing Atlanta Center
Sat 02:03:20 PM 36.7878 -80.7494 317° Northwest 138 159 10,500 50 Level Atlanta Center
Sat 02:04:20 PM 36.8203 -80.7897 315° West 143 165 10,600  Climbing Atlanta Center
Sat 02:05:20 PM 36.8547 -80.8325 315° West 149 171 10,500 -50 Descending Atlanta Center
Sat 02:06:20 PM 36.8869 -80.8700 317° Northwest 154 177 10,500  Level Atlanta Center
Sat 02:07:20 PM 36.9192 -80.9075 317° Northwest 154 177 10,500  Level Atlanta Center
Sat 02:08:20 PM 36.9514 -80.9481 315° West 159 183 10,500  Level Atlanta Center
Sat 02:09:20 PM 36.9836 -80.9831 319° Northwest 159 183 10,500  Level Atlanta Center
Sat 02:10:20 PM 37.0158 -81.0183 319° Northwest 164 189 10,500  Level Atlanta Center
Sat 02:11:20 PM 37.0481 -81.0561 317° Northwest 164 189 10,500  Level Atlanta Center
Sat 02:12:20 PM 37.0867 -81.0989 319° Northwest 164 189 10,500  Level Atlanta Center
Sat 02:14:12 PM 37.1508 -81.1647 321° Northwest 161 185 10,500  Level Indianapolis Center
Sat 02:15:14 PM 37.1883 -81.2053 319° Northwest 160 184 10,500  Level Indianapolis Center
Sat 02:16:15 PM 37.2225 -81.2439 318° Northwest 164 189 10,500  Level Indianapolis Center
Sat 02:17:17 PM 37.2558 -81.2817 318° Northwest 162 186 10,500  Level Indianapolis Center
Sat 02:18:19 PM 37.2894 -81.3197 318° Northwest 162 186 10,500  Level Indianapolis Center
Sat 02:19:20 PM 37.3206 -81.3561 317° Northwest 162 186 10,500  Level Indianapolis Center
Sat 02:20:22 PM 37.3592 -81.4014 317° Northwest 161 185 10,500 49 Level Indianapolis Center
Sat 02:21:23 PM 37.3900 -81.4381 317° Northwest 160 184 10,600  Climbing Indianapolis Center
Sat 02:22:25 PM 37.4231 -81.4761 318° Northwest 162 186 10,500 -49 Descending Indianapolis Center
Sat 02:23:26 PM 37.4594 -81.5197 316° Northwest 162 186 10,500  Level Indianapolis Center
Sat 02:24:28 PM 37.4928 -81.5597 316° Northwest 166 191 10,500 49 Level Indianapolis Center
Sat 02:25:29 PM 37.5250 -81.5981 317° Northwest 162 186 10,600  Climbing Indianapolis Center
Sat 02:26:31 PM 37.5583 -81.6381 316° Northwest 165 190 10,500 -49 Descending Indianapolis Center
Sat 02:27:32 PM 37.5919 -81.6783 316° Northwest 167 192 10,500 49 Level Indianapolis Center
Sat 02:28:34 PM 37.6286 -81.7242 315° West 161 185 10,600 48 Climbing Indianapolis Center
Sat 02:29:36 PM 37.6619 -81.7644 316° Northwest 166 191 10,600 -49 Level Indianapolis Center
Sat 02:30:37 PM 37.6953 -81.8031 317° Northwest 163 188 10,500 -49 Descending Indianapolis Center
Sat 02:31:39 PM 37.7278 -81.8439 315° West 164 189 10,500  Level Indianapolis Center
Sat 02:32:41 PM 37.7611 -81.8814 318° Northwest 161 185 10,500 49 Level Indianapolis Center
Sat 02:33:42 PM 37.7950 -81.9208 317° Northwest 167 192 10,600 49 Climbing Indianapolis Center
Sat 02:34:44 PM 37.8278 -81.9597 317° Northwest 163 188 10,600  Level Indianapolis Center
Sat 02:35:46 PM 37.8675 -82.0044 318° Northwest 163 188 10,600  Level Indianapolis Center
Sat 02:36:47 PM 37.9022 -82.0431 319° Northwest 165 190 10,600  Level Indianapolis Center
Sat 02:37:49 PM 37.9356 -82.0822 317° Northwest 164 189 10,600  Level Indianapolis Center
Sat 02:38:51 PM 37.9689 -82.1214 317° Northwest 164 189 10,600 -49 Level Indianapolis Center
Sat 02:39:52 PM 38.0008 -82.1600 316° Northwest 161 185 10,500  Descending Indianapolis Center
Sat 02:40:54 PM 38.0336 -82.2006 316° Northwest 163 188 10,600  Climbing Indianapolis Center
Sat 02:41:56 PM 38.0719 -82.2478 316° Northwest 163 188 10,500  Descending Indianapolis Center
Sat 02:42:57 PM 38.1056 -82.2861 318° Northwest 164 189 10,600  Climbing Indianapolis Center
Sat 02:43:59 PM 38.1339 -82.3194 317° Northwest 164 189 10,500  Descending Indianapolis Center
Sat 02:45:01 PM 38.1739 -82.3675 317° Northwest 165 190 10,600  Climbing Indianapolis Center
Sat 02:46:03 PM 38.2081 -82.4072 318° Northwest 165 190 10,500  Descending Indianapolis Center
Sat 02:47:04 PM 38.2411 -82.4458 317° Northwest 163 188 10,600  Climbing Indianapolis Center
Sat 02:48:06 PM 38.2744 -82.4858 317° Northwest 164 189 10,500 -48 Descending Indianapolis Center
Sat 02:49:08 PM 38.3122 -82.5261 320° Northwest 160 184 10,500 48 Level Indianapolis Center
Sat 02:50:10 PM 38.3461 -82.5647 318° Northwest 161 185 10,600  Climbing Indianapolis Center
Sat 02:51:12 PM 38.3797 -82.6017 319° Northwest 160 184 10,500 -49 Descending Indianapolis Center
Sat 02:52:13 PM 38.4136 -82.6375 320° Northwest 160 184 10,500 49 Level Indianapolis Center
Sat 02:53:15 PM 38.4469 -82.6756 318° Northwest 160 184 10,600  Climbing Indianapolis Center
Sat 02:54:17 PM 38.4792 -82.7119 319° Northwest 156 180 10,500 -48 Descending Indianapolis Center
Sat 02:55:19 PM 38.5167 -82.7556 318° Northwest 156 180 10,500  Level Indianapolis Center
Sat 02:56:21 PM 38.5486 -82.7928 318° Northwest 156 180 10,500  Level Indianapolis Center
Sat 02:57:22 PM 38.5819 -82.8297 319° Northwest 158 182 10,500  Level Indianapolis Center
Sat 02:58:24 PM 38.6144 -82.8653 319° Northwest 155 178 10,500  Level Indianapolis Center
Sat 02:59:26 PM 38.6475 -82.9025 319° Northwest 155 178 10,500 -48 Level Indianapolis Center
Sat 03:00:28 PM 38.6842 -82.9436 319° Northwest 158 182 10,400 -48 Descending Indianapolis Center
Sat 03:01:30 PM 38.7161 -82.9808 318° Northwest 155 178 10,400  Level Indianapolis Center
Sat 03:02:32 PM 38.7458 -83.0194 315° West 153 176 10,400 48 Level Indianapolis Center
Sat 03:03:34 PM 38.7778 -83.0556 319° Northwest 151 174 10,500  Climbing Indianapolis Center
Sat 03:04:36 PM 38.8089 -83.0928 317° Northwest 152 175 10,400 -49 Descending Indianapolis Center
Sat 03:05:37 PM 38.8411 -83.1289 319° Northwest 154 177 10,400  Level Indianapolis Center
Sat 03:06:39 PM 38.8758 -83.1717 316° Northwest 155 178 10,400  Level Indianapolis Center
Sat 03:07:41 PM 38.9061 -83.2100 315° West 151 174 10,400  Level Indianapolis Center
Sat 03:08:43 PM 38.9358 -83.2503 313° West 152 175 10,400  Level Indianapolis Center
Sat 03:09:45 PM 38.9661 -83.2897 315° West 153 176 10,400 -145 Level Indianapolis Center
Sat 03:10:47 PM 38.9978 -83.3294 316° Northwest 157 181 10,100 -339 Descending Indianapolis Center
Sat 03:11:49 PM 39.0333 -83.3856 309° West 171 197 9,700 -339 Descending Indianapolis Center
Sat 03:12:51 PM 39.0653 -83.4311 312° West 171 197 9,400 -339 Descending Indianapolis Center
Sat 03:13:53 PM 39.0994 -83.4744 315° West 172 198 9,000 -339 Descending Indianapolis Center
Sat 03:14:55 PM 39.1358 -83.5161 318° Northwest 174 200 8,700 -339 Descending Indianapolis Center
Sat 03:15:57 PM 39.1733 -83.5544 322° Northwest 173 199 8,300 -339 Descending Indianapolis Center
Sat 03:16:59 PM 39.2128 -83.5911 324° Northwest 172 198 8,000 -290 Descending Indianapolis Center

Login

Don't have an account? Register now (free) for customized features, flight alerts, and more!